sensor_id;sensor_type;location;lat;lon;timestamp;P1;durP1;ratioP1;P2;durP2;ratioP2
46731;SDS011;32477;51.474;5.696;2023-08-12T00:00:06;70.03;;;33.60;;
46731;SDS011;32477;51.474;5.696;2023-08-12T00:02:40;72.55;;;36.00;;
46731;SDS011;32477;51.474;5.696;2023-08-12T00:05:06;61.63;;;34.17;;
46731;SDS011;32477;51.474;5.696;2023-08-12T00:07:33;61.22;;;32.78;;
46731;SDS011;32477;51.474;5.696;2023-08-12T00:10:02;67.85;;;34.53;;
46731;SDS011;32477;51.474;5.696;2023-08-12T00:12:32;74.13;;;35.28;;
46731;SDS011;32477;51.474;5.696;2023-08-12T00:14:58;64.93;;;33.70;;
46731;SDS011;32477;51.474;5.696;2023-08-12T00:17:25;71.50;;;34.70;;
46731;SDS011;32477;51.474;5.696;2023-08-12T00:19:50;63.75;;;33.45;;
46731;SDS011;32477;51.474;5.696;2023-08-12T00:22:16;64.57;;;33.17;;
46731;SDS011;32477;51.474;5.696;2023-08-12T00:24:41;67.28;;;34.63;;
46731;SDS011;32477;51.474;5.696;2023-08-12T00:27:07;57.60;;;32.65;;
46731;SDS011;32477;51.474;5.696;2023-08-12T00:29:34;61.53;;;33.40;;
46731;SDS011;32477;51.474;5.696;2023-08-12T00:32:00;68.82;;;34.42;;
46731;SDS011;32477;51.474;5.696;2023-08-12T00:34:26;67.43;;;34.40;;
46731;SDS011;32477;51.474;5.696;2023-08-12T00:36:52;70.10;;;35.67;;
46731;SDS011;32477;51.474;5.696;2023-08-12T00:39:18;70.22;;;35.55;;
46731;SDS011;32477;51.474;5.696;2023-08-12T00:41:43;72.13;;;36.47;;
46731;SDS011;32477;51.474;5.696;2023-08-12T00:44:09;72.82;;;36.28;;
46731;SDS011;32477;51.474;5.696;2023-08-12T00:46:35;71.13;;;35.63;;
46731;SDS011;32477;51.474;5.696;2023-08-12T00:49:03;64.28;;;34.78;;
46731;SDS011;32477;51.474;5.696;2023-08-12T00:51:29;70.45;;;38.38;;
46731;SDS011;32477;51.474;5.696;2023-08-12T00:53:54;67.07;;;34.63;;
46731;SDS011;32477;51.474;5.696;2023-08-12T00:56:23;69.28;;;35.53;;
46731;SDS011;32477;51.474;5.696;2023-08-12T00:58:48;76.20;;;35.97;;
46731;SDS011;32477;51.474;5.696;2023-08-12T01:01:14;71.18;;;35.88;;
46731;SDS011;32477;51.474;5.696;2023-08-12T01:03:42;68.57;;;37.05;;
46731;SDS011;32477;51.474;5.696;2023-08-12T01:06:08;66.22;;;34.47;;
46731;SDS011;32477;51.474;5.696;2023-08-12T01:08:34;57.90;;;31.98;;
46731;SDS011;32477;51.474;5.696;2023-08-12T01:11:06;61.72;;;33.50;;
46731;SDS011;32477;51.474;5.696;2023-08-12T01:13:49;48.80;;;26.30;;
46731;SDS011;32477;51.474;5.696;2023-08-12T01:16:20;55.63;;;25.83;;
46731;SDS011;32477;51.474;5.696;2023-08-12T01:18:47;51.80;;;24.05;;
46731;SDS011;32477;51.474;5.696;2023-08-12T01:21:15;51.28;;;24.05;;
46731;SDS011;32477;51.474;5.696;2023-08-12T01:23:42;48.78;;;24.90;;
46731;SDS011;32477;51.474;5.696;2023-08-12T01:26:08;42.42;;;23.83;;
46731;SDS011;32477;51.474;5.696;2023-08-12T01:28:34;50.22;;;26.60;;
46731;SDS011;32477;51.474;5.696;2023-08-12T01:31:08;53.33;;;26.40;;
46731;SDS011;32477;51.474;5.696;2023-08-12T01:33:44;54.33;;;27.23;;
46731;SDS011;32477;51.474;5.696;2023-08-12T01:36:17;53.28;;;27.80;;
46731;SDS011;32477;51.474;5.696;2023-08-12T01:38:45;60.85;;;30.23;;
46731;SDS011;32477;51.474;5.696;2023-08-12T01:41:12;56.10;;;30.75;;
46731;SDS011;32477;51.474;5.696;2023-08-12T01:43:39;55.53;;;30.23;;
46731;SDS011;32477;51.474;5.696;2023-08-12T01:46:06;58.10;;;30.90;;
46731;SDS011;32477;51.474;5.696;2023-08-12T01:48:32;55.78;;;30.17;;
46731;SDS011;32477;51.474;5.696;2023-08-12T01:50:57;60.08;;;31.88;;
46731;SDS011;32477;51.474;5.696;2023-08-12T01:53:23;63.92;;;31.50;;
46731;SDS011;32477;51.474;5.696;2023-08-12T01:55:49;63.63;;;32.40;;
46731;SDS011;32477;51.474;5.696;2023-08-12T01:58:15;57.88;;;32.90;;
46731;SDS011;32477;51.474;5.696;2023-08-12T02:00:41;60.63;;;33.45;;
46731;SDS011;32477;51.474;5.696;2023-08-12T02:03:09;53.63;;;33.05;;
46731;SDS011;32477;51.474;5.696;2023-08-12T02:05:35;60.35;;;31.98;;
46731;SDS011;32477;51.474;5.696;2023-08-12T02:08:02;57.92;;;34.33;;
46731;SDS011;32477;51.474;5.696;2023-08-12T02:10:31;53.53;;;30.45;;
46731;SDS011;32477;51.474;5.696;2023-08-12T02:12:56;61.20;;;31.73;;
46731;SDS011;32477;51.474;5.696;2023-08-12T02:15:22;53.28;;;29.50;;
46731;SDS011;32477;51.474;5.696;2023-08-12T02:17:48;51.80;;;29.50;;
46731;SDS011;32477;51.474;5.696;2023-08-12T02:20:13;56.85;;;29.25;;
46731;SDS011;32477;51.474;5.696;2023-08-12T02:22:39;71.40;;;30.33;;
46731;SDS011;32477;51.474;5.696;2023-08-12T02:25:04;47.70;;;25.80;;
46731;SDS011;32477;51.474;5.696;2023-08-12T02:27:30;44.83;;;25.55;;
46731;SDS011;32477;51.474;5.696;2023-08-12T02:29:56;48.95;;;24.65;;
46731;SDS011;32477;51.474;5.696;2023-08-12T02:32:21;44.38;;;22.73;;
46731;SDS011;32477;51.474;5.696;2023-08-12T02:34:47;42.05;;;21.83;;
46731;SDS011;32477;51.474;5.696;2023-08-12T02:37:12;36.83;;;21.05;;
46731;SDS011;32477;51.474;5.696;2023-08-12T02:39:38;40.72;;;23.83;;
46731;SDS011;32477;51.474;5.696;2023-08-12T02:42:04;40.05;;;23.48;;
46731;SDS011;32477;51.474;5.696;2023-08-12T02:44:30;43.65;;;21.95;;
46731;SDS011;32477;51.474;5.696;2023-08-12T02:46:55;44.47;;;22.00;;
46731;SDS011;32477;51.474;5.696;2023-08-12T02:49:21;37.05;;;21.85;;
46731;SDS011;32477;51.474;5.696;2023-08-12T02:51:46;38.80;;;21.58;;
46731;SDS011;32477;51.474;5.696;2023-08-12T02:54:12;38.13;;;21.20;;
46731;SDS011;32477;51.474;5.696;2023-08-12T02:56:37;39.55;;;20.13;;
46731;SDS011;32477;51.474;5.696;2023-08-12T02:59:03;41.35;;;20.52;;
46731;SDS011;32477;51.474;5.696;2023-08-12T03:01:29;34.90;;;19.95;;
46731;SDS011;32477;51.474;5.696;2023-08-12T03:03:58;40.15;;;18.92;;
46731;SDS011;32477;51.474;5.696;2023-08-12T03:06:23;35.25;;;19.75;;
46731;SDS011;32477;51.474;5.696;2023-08-12T03:08:49;40.67;;;20.63;;
46731;SDS011;32477;51.474;5.696;2023-08-12T03:11:15;34.33;;;19.80;;
46731;SDS011;32477;51.474;5.696;2023-08-12T03:13:41;38.53;;;18.88;;
46731;SDS011;32477;51.474;5.696;2023-08-12T03:16:13;41.67;;;19.83;;
46731;SDS011;32477;51.474;5.696;2023-08-12T03:18:39;35.63;;;20.50;;
46731;SDS011;32477;51.474;5.696;2023-08-12T03:21:06;37.03;;;21.67;;
46731;SDS011;32477;51.474;5.696;2023-08-12T03:23:35;39.63;;;21.20;;
46731;SDS011;32477;51.474;5.696;2023-08-12T03:26:02;38.72;;;22.35;;
46731;SDS011;32477;51.474;5.696;2023-08-12T03:28:28;37.75;;;21.15;;
46731;SDS011;32477;51.474;5.696;2023-08-12T03:30:54;40.10;;;21.90;;
46731;SDS011;32477;51.474;5.696;2023-08-12T03:33:20;38.38;;;22.88;;
46731;SDS011;32477;51.474;5.696;2023-08-12T03:35:46;38.28;;;21.98;;
46731;SDS011;32477;51.474;5.696;2023-08-12T03:38:12;39.28;;;21.42;;
46731;SDS011;32477;51.474;5.696;2023-08-12T03:40:38;43.08;;;23.40;;
46731;SDS011;32477;51.474;5.696;2023-08-12T03:43:04;39.08;;;23.00;;
46731;SDS011;32477;51.474;5.696;2023-08-12T03:45:30;42.65;;;22.50;;
46731;SDS011;32477;51.474;5.696;2023-08-12T03:47:55;38.20;;;23.15;;
46731;SDS011;32477;51.474;5.696;2023-08-12T03:50:21;37.13;;;21.67;;
46731;SDS011;32477;51.474;5.696;2023-08-12T03:52:46;37.60;;;23.27;;
46731;SDS011;32477;51.474;5.696;2023-08-12T03:55:12;38.20;;;22.17;;
46731;SDS011;32477;51.474;5.696;2023-08-12T03:57:38;35.70;;;19.40;;
46731;SDS011;32477;51.474;5.696;2023-08-12T04:00:04;26.65;;;17.85;;
46731;SDS011;32477;51.474;5.696;2023-08-12T04:02:32;30.08;;;16.35;;
46731;SDS011;32477;51.474;5.696;2023-08-12T04:04:57;31.88;;;17.17;;
46731;SDS011;32477;51.474;5.696;2023-08-12T04:07:23;34.80;;;16.95;;
46731;SDS011;32477;51.474;5.696;2023-08-12T04:09:49;30.48;;;15.65;;
46731;SDS011;32477;51.474;5.696;2023-08-12T04:12:14;25.67;;;15.63;;
46731;SDS011;32477;51.474;5.696;2023-08-12T04:14:40;29.65;;;17.00;;
46731;SDS011;32477;51.474;5.696;2023-08-12T04:17:06;28.23;;;17.13;;
46731;SDS011;32477;51.474;5.696;2023-08-12T04:19:31;30.27;;;15.93;;
46731;SDS011;32477;51.474;5.696;2023-08-12T04:21:57;30.58;;;16.10;;
46731;SDS011;32477;51.474;5.696;2023-08-12T04:24:22;27.70;;;17.25;;
46731;SDS011;32477;51.474;5.696;2023-08-12T04:26:48;31.58;;;17.02;;
46731;SDS011;32477;51.474;5.696;2023-08-12T04:29:14;28.17;;;15.35;;
46731;SDS011;32477;51.474;5.696;2023-08-12T04:31:40;31.55;;;15.38;;
46731;SDS011;32477;51.474;5.696;2023-08-12T04:34:06;28.13;;;13.75;;
46731;SDS011;32477;51.474;5.696;2023-08-12T04:36:31;29.23;;;14.63;;
46731;SDS011;32477;51.474;5.696;2023-08-12T04:38:57;23.85;;;13.38;;
46731;SDS011;32477;51.474;5.696;2023-08-12T04:41:22;23.75;;;13.48;;
46731;SDS011;32477;51.474;5.696;2023-08-12T04:43:49;29.63;;;14.43;;
46731;SDS011;32477;51.474;5.696;2023-08-12T04:46:15;26.60;;;13.77;;
46731;SDS011;32477;51.474;5.696;2023-08-12T04:48:40;22.95;;;13.23;;
46731;SDS011;32477;51.474;5.696;2023-08-12T04:51:06;22.00;;;13.60;;
46731;SDS011;32477;51.474;5.696;2023-08-12T04:53:32;25.50;;;14.02;;
46731;SDS011;32477;51.474;5.696;2023-08-12T04:55:57;27.98;;;13.68;;
46731;SDS011;32477;51.474;5.696;2023-08-12T04:58:23;22.67;;;13.60;;
46731;SDS011;32477;51.474;5.696;2023-08-12T05:00:52;29.02;;;13.55;;
46731;SDS011;32477;51.474;5.696;2023-08-12T05:03:17;21.15;;;12.73;;
46731;SDS011;32477;51.474;5.696;2023-08-12T05:05:43;26.40;;;12.43;;
46731;SDS011;32477;51.474;5.696;2023-08-12T05:08:13;19.10;;;12.35;;
46731;SDS011;32477;51.474;5.696;2023-08-12T05:10:38;21.90;;;12.02;;
46731;SDS011;32477;51.474;5.696;2023-08-12T05:13:04;23.77;;;12.30;;
46731;SDS011;32477;51.474;5.696;2023-08-12T05:15:29;22.33;;;11.45;;
46731;SDS011;32477;51.474;5.696;2023-08-12T05:17:55;21.95;;;12.55;;
46731;SDS011;32477;51.474;5.696;2023-08-12T05:20:20;20.27;;;11.40;;
46731;SDS011;32477;51.474;5.696;2023-08-12T05:22:46;25.75;;;12.90;;
46731;SDS011;32477;51.474;5.696;2023-08-12T05:25:11;25.27;;;13.07;;
46731;SDS011;32477;51.474;5.696;2023-08-12T05:27:37;21.75;;;12.57;;
46731;SDS011;32477;51.474;5.696;2023-08-12T05:30:03;22.67;;;11.02;;
46731;SDS011;32477;51.474;5.696;2023-08-12T05:32:29;17.77;;;9.48;;
46731;SDS011;32477;51.474;5.696;2023-08-12T05:34:55;22.17;;;10.57;;
46731;SDS011;32477;51.474;5.696;2023-08-12T05:37:20;15.48;;;9.35;;
46731;SDS011;32477;51.474;5.696;2023-08-12T05:39:46;17.80;;;10.35;;
46731;SDS011;32477;51.474;5.696;2023-08-12T05:42:12;18.20;;;10.32;;
46731;SDS011;32477;51.474;5.696;2023-08-12T05:44:37;18.65;;;10.80;;
46731;SDS011;32477;51.474;5.696;2023-08-12T05:47:05;20.02;;;10.25;;
46731;SDS011;32477;51.474;5.696;2023-08-12T05:49:30;16.70;;;10.18;;
46731;SDS011;32477;51.474;5.696;2023-08-12T05:51:56;30.70;;;11.50;;
46731;SDS011;32477;51.474;5.696;2023-08-12T05:54:21;24.30;;;11.15;;
46731;SDS011;32477;51.474;5.696;2023-08-12T05:56:47;20.58;;;12.23;;
46731;SDS011;32477;51.474;5.696;2023-08-12T05:59:13;17.20;;;10.63;;
46731;SDS011;32477;51.474;5.696;2023-08-12T06:01:38;19.95;;;11.38;;
46731;SDS011;32477;51.474;5.696;2023-08-12T06:04:04;21.27;;;11.35;;
46731;SDS011;32477;51.474;5.696;2023-08-12T06:06:30;22.00;;;11.55;;
46731;SDS011;32477;51.474;5.696;2023-08-12T06:08:55;22.35;;;12.27;;
46731;SDS011;32477;51.474;5.696;2023-08-12T06:11:21;18.40;;;11.75;;
46731;SDS011;32477;51.474;5.696;2023-08-12T06:13:46;25.52;;;11.50;;
46731;SDS011;32477;51.474;5.696;2023-08-12T06:16:12;19.10;;;11.55;;
46731;SDS011;32477;51.474;5.696;2023-08-12T06:18:37;18.77;;;11.52;;
46731;SDS011;32477;51.474;5.696;2023-08-12T06:21:03;14.85;;;10.40;;
46731;SDS011;32477;51.474;5.696;2023-08-12T06:23:29;18.40;;;10.63;;
46731;SDS011;32477;51.474;5.696;2023-08-12T06:25:55;16.85;;;9.55;;
46731;SDS011;32477;51.474;5.696;2023-08-12T06:28:20;13.55;;;9.25;;
46731;SDS011;32477;51.474;5.696;2023-08-12T06:30:46;14.75;;;8.75;;
46731;SDS011;32477;51.474;5.696;2023-08-12T06:33:13;10.38;;;7.45;;
46731;SDS011;32477;51.474;5.696;2023-08-12T06:35:39;10.18;;;5.57;;
46731;SDS011;32477;51.474;5.696;2023-08-12T06:38:05;12.25;;;6.10;;
46731;SDS011;32477;51.474;5.696;2023-08-12T06:40:31;7.18;;;5.03;;
46731;SDS011;32477;51.474;5.696;2023-08-12T06:42:56;9.15;;;5.10;;
46731;SDS011;32477;51.474;5.696;2023-08-12T06:45:22;8.68;;;4.72;;
46731;SDS011;32477;51.474;5.696;2023-08-12T06:47:47;6.60;;;4.60;;
46731;SDS011;32477;51.474;5.696;2023-08-12T06:50:13;7.40;;;5.00;;
46731;SDS011;32477;51.474;5.696;2023-08-12T06:52:38;8.90;;;4.70;;
46731;SDS011;32477;51.474;5.696;2023-08-12T06:55:04;5.47;;;4.32;;
46731;SDS011;32477;51.474;5.696;2023-08-12T06:57:30;6.00;;;4.32;;
46731;SDS011;32477;51.474;5.696;2023-08-12T06:59:56;5.47;;;4.40;;
46731;SDS011;32477;51.474;5.696;2023-08-12T07:02:21;6.88;;;4.22;;
46731;SDS011;32477;51.474;5.696;2023-08-12T07:04:47;4.78;;;3.58;;
46731;SDS011;32477;51.474;5.696;2023-08-12T07:07:13;7.90;;;4.93;;
46731;SDS011;32477;51.474;5.696;2023-08-12T07:09:38;8.07;;;5.88;;
46731;SDS011;32477;51.474;5.696;2023-08-12T07:12:04;6.28;;;5.40;;
46731;SDS011;32477;51.474;5.696;2023-08-12T07:14:30;8.57;;;5.32;;
46731;SDS011;32477;51.474;5.696;2023-08-12T07:16:55;5.85;;;5.18;;
46731;SDS011;32477;51.474;5.696;2023-08-12T07:19:21;6.53;;;5.32;;
46731;SDS011;32477;51.474;5.696;2023-08-12T07:21:47;7.40;;;5.78;;
46731;SDS011;32477;51.474;5.696;2023-08-12T07:24:12;7.90;;;5.75;;
46731;SDS011;32477;51.474;5.696;2023-08-12T07:26:38;8.35;;;6.20;;
46731;SDS011;32477;51.474;5.696;2023-08-12T07:29:04;11.15;;;6.32;;
46731;SDS011;32477;51.474;5.696;2023-08-12T07:31:29;11.88;;;6.78;;
46731;SDS011;32477;51.474;5.696;2023-08-12T07:33:55;9.18;;;6.85;;
46731;SDS011;32477;51.474;5.696;2023-08-12T07:36:20;10.30;;;7.40;;
46731;SDS011;32477;51.474;5.696;2023-08-12T07:38:47;10.77;;;7.45;;
46731;SDS011;32477;51.474;5.696;2023-08-12T07:41:12;8.55;;;6.82;;
46731;SDS011;32477;51.474;5.696;2023-08-12T07:43:38;11.57;;;6.80;;
46731;SDS011;32477;51.474;5.696;2023-08-12T07:46:04;10.35;;;7.05;;
46731;SDS011;32477;51.474;5.696;2023-08-12T07:48:29;9.48;;;7.03;;
46731;SDS011;32477;51.474;5.696;2023-08-12T07:50:58;9.52;;;7.15;;
46731;SDS011;32477;51.474;5.696;2023-08-12T07:53:25;10.80;;;6.57;;
46731;SDS011;32477;51.474;5.696;2023-08-12T07:55:51;9.73;;;6.90;;
46731;SDS011;32477;51.474;5.696;2023-08-12T07:58:17;9.88;;;7.30;;
46731;SDS011;32477;51.474;5.696;2023-08-12T08:00:42;12.32;;;7.47;;
46731;SDS011;32477;51.474;5.696;2023-08-12T08:03:08;11.18;;;7.63;;
46731;SDS011;32477;51.474;5.696;2023-08-12T08:05:34;10.07;;;7.35;;
46731;SDS011;32477;51.474;5.696;2023-08-12T08:07:59;9.07;;;7.32;;
46731;SDS011;32477;51.474;5.696;2023-08-12T08:10:25;10.18;;;6.00;;
46731;SDS011;32477;51.474;5.696;2023-08-12T08:12:51;8.55;;;5.75;;
46731;SDS011;32477;51.474;5.696;2023-08-12T08:15:16;9.32;;;5.18;;
46731;SDS011;32477;51.474;5.696;2023-08-12T08:17:42;8.48;;;5.60;;
46731;SDS011;32477;51.474;5.696;2023-08-12T08:20:07;7.38;;;4.93;;
46731;SDS011;32477;51.474;5.696;2023-08-12T08:22:35;5.80;;;4.43;;
46731;SDS011;32477;51.474;5.696;2023-08-12T08:25:01;7.47;;;4.75;;
46731;SDS011;32477;51.474;5.696;2023-08-12T08:27:26;5.22;;;4.72;;
46731;SDS011;32477;51.474;5.696;2023-08-12T08:29:52;9.00;;;4.40;;
46731;SDS011;32477;51.474;5.696;2023-08-12T08:32:18;4.05;;;3.42;;
46731;SDS011;32477;51.474;5.696;2023-08-12T08:34:44;6.97;;;3.50;;
46731;SDS011;32477;51.474;5.696;2023-08-12T08:37:09;6.45;;;2.72;;
46731;SDS011;32477;51.474;5.696;2023-08-12T08:39:35;4.55;;;3.15;;
46731;SDS011;32477;51.474;5.696;2023-08-12T08:42:00;7.38;;;2.83;;
46731;SDS011;32477;51.474;5.696;2023-08-12T08:44:30;2.55;;;2.35;;
46731;SDS011;32477;51.474;5.696;2023-08-12T08:46:58;4.22;;;3.10;;
46731;SDS011;32477;51.474;5.696;2023-08-12T08:49:24;8.68;;;3.50;;
46731;SDS011;32477;51.474;5.696;2023-08-12T08:51:51;8.93;;;3.15;;
46731;SDS011;32477;51.474;5.696;2023-08-12T08:54:18;3.45;;;3.13;;
46731;SDS011;32477;51.474;5.696;2023-08-12T08:56:45;4.35;;;3.33;;
46731;SDS011;32477;51.474;5.696;2023-08-12T08:59:13;5.47;;;3.25;;
46731;SDS011;32477;51.474;5.696;2023-08-12T09:01:38;5.20;;;2.95;;
46731;SDS011;32477;51.474;5.696;2023-08-12T09:04:05;4.40;;;3.28;;
46731;SDS011;32477;51.474;5.696;2023-08-12T09:06:32;4.63;;;3.78;;
46731;SDS011;32477;51.474;5.696;2023-08-12T09:09:00;2.95;;;2.45;;
46731;SDS011;32477;51.474;5.696;2023-08-12T09:11:26;3.88;;;2.92;;
46731;SDS011;32477;51.474;5.696;2023-08-12T09:13:52;3.45;;;3.15;;
46731;SDS011;32477;51.474;5.696;2023-08-12T09:16:18;3.60;;;2.80;;
46731;SDS011;32477;51.474;5.696;2023-08-12T09:18:44;4.18;;;3.30;;
46731;SDS011;32477;51.474;5.696;2023-08-12T09:21:10;5.28;;;3.55;;
46731;SDS011;32477;51.474;5.696;2023-08-12T09:23:40;4.43;;;3.40;;
46731;SDS011;32477;51.474;5.696;2023-08-12T09:26:16;4.97;;;4.20;;
46731;SDS011;32477;51.474;5.696;2023-08-12T09:28:43;4.72;;;4.32;;
46731;SDS011;32477;51.474;5.696;2023-08-12T09:31:25;9.20;;;5.07;;
46731;SDS011;32477;51.474;5.696;2023-08-12T09:33:53;5.25;;;4.68;;
46731;SDS011;32477;51.474;5.696;2023-08-12T09:36:22;7.88;;;5.20;;
46731;SDS011;32477;51.474;5.696;2023-08-12T09:38:48;6.30;;;5.25;;
46731;SDS011;32477;51.474;5.696;2023-08-12T09:41:14;5.88;;;5.38;;
46731;SDS011;32477;51.474;5.696;2023-08-12T09:43:40;7.65;;;5.18;;
46731;SDS011;32477;51.474;5.696;2023-08-12T09:46:10;6.50;;;5.75;;
46731;SDS011;32477;51.474;5.696;2023-08-12T09:48:37;9.70;;;5.75;;
46731;SDS011;32477;51.474;5.696;2023-08-12T09:51:03;5.70;;;5.20;;
46731;SDS011;32477;51.474;5.696;2023-08-12T09:53:29;5.40;;;4.90;;
46731;SDS011;32477;51.474;5.696;2023-08-12T09:55:55;7.05;;;5.45;;
46731;SDS011;32477;51.474;5.696;2023-08-12T09:58:28;6.07;;;4.97;;
46731;SDS011;32477;51.474;5.696;2023-08-12T10:00:57;4.18;;;3.88;;
46731;SDS011;32477;51.474;5.696;2023-08-12T10:03:23;5.35;;;3.53;;
46731;SDS011;32477;51.474;5.696;2023-08-12T10:05:49;3.58;;;2.58;;
46731;SDS011;32477;51.474;5.696;2023-08-12T10:08:15;2.28;;;2.08;;
46731;SDS011;32477;51.474;5.696;2023-08-12T10:10:42;1.83;;;1.73;;
46731;SDS011;32477;51.474;5.696;2023-08-12T10:13:09;2.83;;;2.50;;
46731;SDS011;32477;51.474;5.696;2023-08-12T10:15:35;2.25;;;1.80;;
46731;SDS011;32477;51.474;5.696;2023-08-12T10:18:02;2.00;;;1.80;;
46731;SDS011;32477;51.474;5.696;2023-08-12T10:20:30;2.40;;;2.20;;
46731;SDS011;32477;51.474;5.696;2023-08-12T10:22:57;2.17;;;1.98;;
46731;SDS011;32477;51.474;5.696;2023-08-12T10:25:25;2.50;;;2.30;;
46731;SDS011;32477;51.474;5.696;2023-08-12T10:27:58;4.90;;;2.42;;
46731;SDS011;32477;51.474;5.696;2023-08-12T10:30:23;5.75;;;2.47;;
46731;SDS011;32477;51.474;5.696;2023-08-12T10:32:52;2.60;;;2.25;;
46731;SDS011;32477;51.474;5.696;2023-08-12T10:35:18;2.88;;;2.58;;
46731;SDS011;32477;51.474;5.696;2023-08-12T10:37:47;2.85;;;2.33;;
46731;SDS011;32477;51.474;5.696;2023-08-12T10:40:22;3.53;;;2.40;;
46731;SDS011;32477;51.474;5.696;2023-08-12T10:42:48;4.85;;;2.58;;
46731;SDS011;32477;51.474;5.696;2023-08-12T10:45:15;6.15;;;2.70;;
46731;SDS011;32477;51.474;5.696;2023-08-12T10:47:43;3.40;;;2.20;;
46731;SDS011;32477;51.474;5.696;2023-08-12T10:50:25;3.25;;;2.72;;
46731;SDS011;32477;51.474;5.696;2023-08-12T10:52:54;3.65;;;2.33;;
46731;SDS011;32477;51.474;5.696;2023-08-12T10:57:49;3.58;;;1.95;;
46731;SDS011;32477;51.474;5.696;2023-08-12T11:00:17;6.40;;;2.35;;
46731;SDS011;32477;51.474;5.696;2023-08-12T11:02:54;4.78;;;1.85;;
46731;SDS011;32477;51.474;5.696;2023-08-12T11:05:21;3.33;;;1.25;;
46731;SDS011;32477;51.474;5.696;2023-08-12T11:10:27;3.70;;;1.60;;
46731;SDS011;32477;51.474;5.696;2023-08-12T11:12:55;3.10;;;1.88;;
46731;SDS011;32477;51.474;5.696;2023-08-12T11:15:31;2.95;;;1.80;;
46731;SDS011;32477;51.474;5.696;2023-08-12T11:18:05;2.00;;;1.60;;
46731;SDS011;32477;51.474;5.696;2023-08-12T11:20:33;4.60;;;1.73;;
46731;SDS011;32477;51.474;5.696;2023-08-12T11:23:00;1.83;;;1.00;;
46731;SDS011;32477;51.474;5.696;2023-08-12T11:25:30;3.08;;;1.45;;
46731;SDS011;32477;51.474;5.696;2023-08-12T11:27:56;3.40;;;1.40;;
46731;SDS011;32477;51.474;5.696;2023-08-12T11:30:23;3.88;;;1.80;;
46731;SDS011;32477;51.474;5.696;2023-08-12T11:32:50;2.33;;;1.27;;
46731;SDS011;32477;51.474;5.696;2023-08-12T11:35:17;3.58;;;1.13;;
46731;SDS011;32477;51.474;5.696;2023-08-12T11:37:45;2.78;;;1.58;;
46731;SDS011;32477;51.474;5.696;2023-08-12T11:40:12;4.45;;;1.38;;
46731;SDS011;32477;51.474;5.696;2023-08-12T11:42:41;3.72;;;1.40;;
46731;SDS011;32477;51.474;5.696;2023-08-12T11:45:08;7.65;;;1.55;;
46731;SDS011;32477;51.474;5.696;2023-08-12T11:47:34;5.38;;;1.60;;
46731;SDS011;32477;51.474;5.696;2023-08-12T11:50:06;5.28;;;1.88;;
46731;SDS011;32477;51.474;5.696;2023-08-12T11:52:34;6.93;;;1.40;;
46731;SDS011;32477;51.474;5.696;2023-08-12T11:55:01;2.72;;;1.17;;
46731;SDS011;32477;51.474;5.696;2023-08-12T11:57:27;4.75;;;1.27;;
46731;SDS011;32477;51.474;5.696;2023-08-12T11:59:53;5.43;;;1.13;;
46731;SDS011;32477;51.474;5.696;2023-08-12T12:02:24;3.20;;;1.10;;
46731;SDS011;32477;51.474;5.696;2023-08-12T12:04:51;6.32;;;1.60;;
46731;SDS011;32477;51.474;5.696;2023-08-12T12:07:18;3.88;;;1.35;;
46731;SDS011;32477;51.474;5.696;2023-08-12T12:09:50;6.28;;;1.52;;
46731;SDS011;32477;51.474;5.696;2023-08-12T12:12:25;4.80;;;1.60;;
46731;SDS011;32477;51.474;5.696;2023-08-12T12:14:51;6.63;;;1.13;;
46731;SDS011;32477;51.474;5.696;2023-08-12T12:17:20;6.10;;;1.55;;
46731;SDS011;32477;51.474;5.696;2023-08-12T12:19:55;4.97;;;1.63;;
46731;SDS011;32477;51.474;5.696;2023-08-12T12:22:28;5.37;;;1.50;;
46731;SDS011;32477;51.474;5.696;2023-08-12T12:24:57;11.45;;;1.75;;
46731;SDS011;32477;51.474;5.696;2023-08-12T12:27:31;6.95;;;2.03;;
46731;SDS011;32477;51.474;5.696;2023-08-12T12:29:57;7.00;;;1.90;;
46731;SDS011;32477;51.474;5.696;2023-08-12T12:32:22;4.88;;;1.55;;
46731;SDS011;32477;51.474;5.696;2023-08-12T12:34:48;4.45;;;1.52;;
46731;SDS011;32477;51.474;5.696;2023-08-12T12:37:14;3.55;;;1.83;;
46731;SDS011;32477;51.474;5.696;2023-08-12T12:39:40;7.10;;;1.88;;
46731;SDS011;32477;51.474;5.696;2023-08-12T12:42:06;7.68;;;1.85;;
46731;SDS011;32477;51.474;5.696;2023-08-12T12:44:33;3.63;;;1.40;;
46731;SDS011;32477;51.474;5.696;2023-08-12T12:46:59;7.68;;;2.00;;
46731;SDS011;32477;51.474;5.696;2023-08-12T12:49:24;8.45;;;1.90;;
46731;SDS011;32477;51.474;5.696;2023-08-12T12:51:50;8.15;;;1.95;;
46731;SDS011;32477;51.474;5.696;2023-08-12T12:54:17;8.75;;;2.22;;
46731;SDS011;32477;51.474;5.696;2023-08-12T12:56:43;5.15;;;1.42;;
46731;SDS011;32477;51.474;5.696;2023-08-12T12:59:08;11.13;;;2.20;;
46731;SDS011;32477;51.474;5.696;2023-08-12T13:01:34;10.60;;;1.88;;
46731;SDS011;32477;51.474;5.696;2023-08-12T13:04:00;5.63;;;2.22;;
46731;SDS011;32477;51.474;5.696;2023-08-12T13:06:25;8.82;;;2.15;;
46731;SDS011;32477;51.474;5.696;2023-08-12T13:08:52;9.30;;;2.47;;
46731;SDS011;32477;51.474;5.696;2023-08-12T13:11:18;8.88;;;2.35;;
46731;SDS011;32477;51.474;5.696;2023-08-12T13:13:43;5.18;;;1.80;;
46731;SDS011;32477;51.474;5.696;2023-08-12T13:16:09;5.22;;;2.40;;
46731;SDS011;32477;51.474;5.696;2023-08-12T13:18:34;6.03;;;2.47;;
46731;SDS011;32477;51.474;5.696;2023-08-12T13:21:00;6.15;;;2.05;;
46731;SDS011;32477;51.474;5.696;2023-08-12T13:23:26;6.97;;;2.50;;
46731;SDS011;32477;51.474;5.696;2023-08-12T13:25:52;7.47;;;3.03;;
46731;SDS011;32477;51.474;5.696;2023-08-12T13:28:17;11.68;;;3.03;;
46731;SDS011;32477;51.474;5.696;2023-08-12T13:30:44;7.53;;;2.65;;
46731;SDS011;32477;51.474;5.696;2023-08-12T13:33:12;8.98;;;2.83;;
46731;SDS011;32477;51.474;5.696;2023-08-12T13:35:38;7.18;;;2.83;;
46731;SDS011;32477;51.474;5.696;2023-08-12T13:38:04;14.50;;;3.63;;
46731;SDS011;32477;51.474;5.696;2023-08-12T13:40:29;11.65;;;2.10;;
46731;SDS011;32477;51.474;5.696;2023-08-12T13:42:55;8.77;;;2.72;;
46731;SDS011;32477;51.474;5.696;2023-08-12T13:45:21;5.50;;;2.40;;
46731;SDS011;32477;51.474;5.696;2023-08-12T13:47:56;6.28;;;2.65;;
46731;SDS011;32477;51.474;5.696;2023-08-12T13:50:22;8.35;;;2.70;;
46731;SDS011;32477;51.474;5.696;2023-08-12T13:52:48;8.95;;;2.70;;
46731;SDS011;32477;51.474;5.696;2023-08-12T13:55:15;7.10;;;2.33;;
46731;SDS011;32477;51.474;5.696;2023-08-12T13:57:41;7.28;;;2.03;;
46731;SDS011;32477;51.474;5.696;2023-08-12T14:00:07;6.18;;;2.65;;
46731;SDS011;32477;51.474;5.696;2023-08-12T14:02:37;9.52;;;2.63;;
46731;SDS011;32477;51.474;5.696;2023-08-12T14:05:03;6.90;;;2.72;;
46731;SDS011;32477;51.474;5.696;2023-08-12T14:07:29;24.98;;;12.32;;
46731;SDS011;32477;51.474;5.696;2023-08-12T14:09:55;19.77;;;9.40;;
46731;SDS011;32477;51.474;5.696;2023-08-12T14:12:21;14.23;;;3.78;;
46731;SDS011;32477;51.474;5.696;2023-08-12T14:14:46;8.10;;;3.25;;
46731;SDS011;32477;51.474;5.696;2023-08-12T14:17:13;6.68;;;2.88;;
46731;SDS011;32477;51.474;5.696;2023-08-12T14:19:41;12.40;;;2.80;;
46731;SDS011;32477;51.474;5.696;2023-08-12T14:22:08;6.25;;;2.63;;
46731;SDS011;32477;51.474;5.696;2023-08-12T14:24:33;10.10;;;3.17;;
46731;SDS011;32477;51.474;5.696;2023-08-12T14:26:59;12.32;;;2.88;;
46731;SDS011;32477;51.474;5.696;2023-08-12T14:29:25;6.43;;;2.65;;
46731;SDS011;32477;51.474;5.696;2023-08-12T14:31:51;9.93;;;4.32;;
46731;SDS011;32477;51.474;5.696;2023-08-12T14:34:17;7.82;;;3.33;;
46731;SDS011;32477;51.474;5.696;2023-08-12T14:36:43;8.85;;;3.53;;